Dillon, Colorado
Current Conditions -  °F | °C
As of 3:17 AM on Friday 31 Oct 2014 (Local Time) from KCCU Reporting Station
Clear Clear  
Wind Chill:   Ceiling: Unl
Heat Index:   Visibility: NA
Dew Point: -20°   Wind: 20mph
Humidity: 15%   Direction: 190°S
Pressure: 30.52"   Gusts: NA
Location:  39.63°N, 106.04°W
Report Text: KCCU 310917Z AUTO 19017KT CLR 05/M20 A3052 RMK AO2 PWINO
Loading
Personal Weather Stations






























Interactive Weather Map
Tropical Storm Tracking
New forecast layout! Learn more

10-Day Weather Forecast

Advertisements
Track Severe Weather on mobile